Impacts METAR Board
IDs:

KDCA - Washington/National, VA, US

Updated at: 0700 UTC 11 Dec 2018
Potential Impact None Slight Moderate High
Time 10/19Z 10/20Z 10/21Z 10/22Z 10/23Z 11/00Z 11/01Z 11/02Z 11/03Z 11/04Z 11/05Z 11/06Z 11/07Z
Temp39 41 40 37 36 37 36 34 33 31 31 31 30
Dewpt22 23 23 23 23 23 23 23 22 22 22 22 21
Altim30.15 30.13 30.14 30.15 30.17 30.18 30.20 30.22 30.21 30.21 30.22 30.20 30.21
VIS10 10 10 10 10 10 10 10 10 10 10 10 10
CIG250 250 250 250 -- -- -- -- -- -- -- -- --
CoverOVCBKNBKNBKNSCTFEWFEWFEWFEWSCTSCTFEWFEW
FltCatVFRVFRVFRVFRVFRVFRVFRVFRVFRVFRVFRVFRVFR
WX--------------------------
WDir350301036010202020340340350330330
WSpd10 8 9 12 9 9 10 6 8 4 5 5 5
WGst-- -- -- -- -- -- -- -- -- -- -- -- --
Raw hourly METARs
KDCA 101852Z 35010KT 10SM OVC250 04/M06 A3015 RMK AO2 SLP207 T00391056
KDCA 101952Z 03008KT 10SM BKN250 05/M05 A3013 RMK AO2 SLP203 T00501050
KDCA 102052Z 01009KT 10SM BKN250 04/M05 A3014 RMK AO2 SLP205 T00441050 55004
KDCA 102152Z 36012KT 10SM BKN250 03/M05 A3015 RMK AO2 SLP210 T00281050
KDCA 102252Z 01009KT 10SM SCT250 02/M05 A3017 RMK AO2 SLP216 T00221050
KDCA 102352Z 02009KT 10SM FEW250 03/M05 A3018 RMK AO2 SLP221 T00281050 10050 20022 51016
KDCA 110052Z 02010KT 10SM FEW250 02/M05 A3020 RMK AO2 SLP227 T00221050
KDCA 110152Z 02006KT 10SM FEW250 01/M05 A3022 RMK AO2 SLP231 T00111050
KDCA 110252Z 34008KT 10SM FEW250 01/M06 A3021 RMK AO2 SLP229 T00061056 50009
KDCA 110352Z 34004KT 10SM SCT250 M01/M06 A3021 RMK AO2 SLP230 T10061056
KDCA 110452Z 35005KT 10SM SCT250 M01/M06 A3022 RMK AO2 SLP231 T10061056 400501011
KDCA 110552Z 33005KT 10SM FEW250 M01/M06 A3020 RMK AO2 SLP227 T10061056 10028 21006 58003
KDCA 110652Z 33005KT 10SM FEW250 M01/M06 A3021 RMK AO2 SLP228 T10111061



Page loaded:  07:48 UTC  |   11:48 PM Pacific  |   12:48 AM Mountain  |   01:48 AM Central  |   02:48 AM Eastern

 

ADVISORIES

FORECASTS

FORECASTS

OBSERVATIONS

USER TOOLS

ABOUT US